createdAt,value
2023-04-02T00:00:23.380Z,16.98
2023-04-02T00:03:03.395Z,17.95
2023-04-02T00:05:59.678Z,17.63
2023-04-02T00:08:40.628Z,17.48
2023-04-02T00:11:11.838Z,17.00
2023-04-02T00:13:46.283Z,17.23
2023-04-02T00:16:27.040Z,17.00
2023-04-02T00:18:59.677Z,17.73
2023-04-02T00:21:39.555Z,17.42
2023-04-02T00:24:21.748Z,17.15
2023-04-02T00:26:52.153Z,16.20
2023-04-02T00:29:22.614Z,17.52
2023-04-02T00:31:54.560Z,17.20
2023-04-02T00:34:33.620Z,17.08
2023-04-02T00:37:07.898Z,17.02
2023-04-02T00:39:41.247Z,18.25
2023-04-02T00:42:14.384Z,17.27
2023-04-02T00:44:50.932Z,17.67
2023-04-02T00:47:28.217Z,15.85
2023-04-02T00:50:01.575Z,17.00
2023-04-02T00:52:34.015Z,17.13
2023-04-02T00:55:10.920Z,18.23
2023-04-02T00:57:44.912Z,17.60
2023-04-02T01:00:23.468Z,18.05
2023-04-02T01:03:29.494Z,16.83
2023-04-02T01:06:10.304Z,17.23
2023-04-02T01:08:56.484Z,16.50
2023-04-02T01:11:48.317Z,17.00
2023-04-02T01:14:39.207Z,16.90
2023-04-02T01:17:31.175Z,16.02
2023-04-02T01:20:41.867Z,17.38
2023-04-02T01:23:16.825Z,16.77
2023-04-02T01:25:50.568Z,16.85
2023-04-02T01:28:29.202Z,16.33
2023-04-02T01:31:04.484Z,16.75
2023-04-02T01:33:39.286Z,16.90
2023-04-02T01:36:17.492Z,16.40
2023-04-02T01:38:56.280Z,16.70
2023-04-02T01:41:31.995Z,17.23
2023-04-02T01:44:08.811Z,16.58
2023-04-02T01:46:44.465Z,17.52
2023-04-02T01:49:25.433Z,16.80
2023-04-02T01:52:07.037Z,16.23
2023-04-02T01:54:43.641Z,16.17
2023-04-02T01:57:14.317Z,16.45
2023-04-02T01:59:49.578Z,15.43
2023-04-02T02:02:23.341Z,17.40
2023-04-02T02:04:52.764Z,15.07
2023-04-02T02:07:23.859Z,15.80
2023-04-02T02:09:56.732Z,16.35
2023-04-02T02:12:30.929Z,14.90
2023-04-02T02:15:00.587Z,14.98
2023-04-02T02:17:34.461Z,15.15
2023-04-02T02:20:12.246Z,14.43
2023-04-02T02:22:45.374Z,14.18
2023-04-02T02:25:18.636Z,13.65
2023-04-02T02:27:55.967Z,13.80
2023-04-02T02:30:35.035Z,13.63
2023-04-02T02:33:13.933Z,13.70
2023-04-02T02:35:55.668Z,12.63
2023-04-02T02:38:59.375Z,13.82
2023-04-02T02:41:46.721Z,14.02
2023-04-02T02:44:25.785Z,13.48
2023-04-02T02:47:01.217Z,13.63
2023-04-02T02:49:35.898Z,12.77
2023-04-02T02:52:17.198Z,13.07
2023-04-02T02:55:13.785Z,13.65
2023-04-02T02:58:06.693Z,13.73
2023-04-02T03:00:45.820Z,13.70
2023-04-02T03:03:19.364Z,12.82
2023-04-02T03:06:05.026Z,13.63
2023-04-02T03:08:47.117Z,13.27
2023-04-02T03:11:29.579Z,13.70
2023-04-02T03:14:06.538Z,12.63
2023-04-02T03:16:41.737Z,13.15
2023-04-02T03:19:25.582Z,12.60
2023-04-02T03:22:05.581Z,12.70
2023-04-02T03:24:53.003Z,12.88
2023-04-02T03:27:26.658Z,11.70
2023-04-02T03:30:07.774Z,12.40
2023-04-02T03:32:42.168Z,12.35
2023-04-02T03:35:24.548Z,11.68
2023-04-02T03:38:00.804Z,11.65
2023-04-02T03:40:36.996Z,11.63
2023-04-02T03:43:14.983Z,11.63
2023-04-02T03:45:47.631Z,11.40
2023-04-02T03:48:25.270Z,11.20
2023-04-02T03:51:15.384Z,10.98
2023-04-02T03:53:53.497Z,11.48
2023-04-02T03:59:25.248Z,10.98
2023-04-02T04:02:04.100Z,10.00
2023-04-02T04:04:34.327Z,11.85
2023-04-02T04:07:03.952Z,11.25
2023-04-02T04:09:38.467Z,10.40
2023-04-02T04:15:00.268Z,10.30
2023-04-02T04:17:38.155Z,10.60
2023-04-02T04:20:21.538Z,10.68
2023-04-02T04:22:55.345Z,11.13
2023-04-02T04:25:34.479Z,11.60
2023-04-02T04:28:21.550Z,10.20
2023-04-02T04:31:03.817Z,10.02
2023-04-02T04:33:42.826Z,10.13
2023-04-02T04:36:28.558Z,10.02
2023-04-02T04:39:21.171Z,10.27
2023-04-02T04:41:56.085Z,10.50
2023-04-02T04:44:27.857Z,10.00
2023-04-02T04:47:06.083Z,10.30
2023-04-02T04:49:46.338Z,10.25
2023-04-02T04:52:22.324Z,10.60
2023-04-02T04:54:52.590Z,10.30
2023-04-02T04:57:35.736Z,9.88
2023-04-02T05:00:18.511Z,10.02
2023-04-02T05:02:54.078Z,10.10
2023-04-02T05:05:30.973Z,10.50
2023-04-02T05:08:17.012Z,10.82
2023-04-02T05:10:51.524Z,10.25
2023-04-02T05:13:30.606Z,10.35
2023-04-02T05:16:15.295Z,10.63
2023-04-02T05:18:51.219Z,9.95
2023-04-02T05:21:28.729Z,11.25
2023-04-02T05:24:08.760Z,10.40
2023-04-02T05:26:44.109Z,11.75
2023-04-02T05:29:22.460Z,11.25
2023-04-02T05:32:03.184Z,11.25
2023-04-02T05:34:42.135Z,11.95
2023-04-02T05:37:19.405Z,11.48
2023-04-02T05:39:54.311Z,11.77
2023-04-02T05:42:26.951Z,11.20
2023-04-02T05:45:16.250Z,11.02
2023-04-02T05:47:47.793Z,11.13
2023-04-02T05:50:30.097Z,11.18
2023-04-02T05:53:06.221Z,11.50
2023-04-02T05:58:37.181Z,11.45
2023-04-02T06:01:46.836Z,11.00
2023-04-02T06:04:26.680Z,11.68
2023-04-02T06:07:07.077Z,11.50
2023-04-02T06:12:18.508Z,10.90
2023-04-02T06:14:48.332Z,11.60
2023-04-02T06:17:22.076Z,12.07
2023-04-02T06:19:53.395Z,11.45
2023-04-02T06:22:36.199Z,12.10
2023-04-02T06:25:12.517Z,15.98
2023-04-02T06:27:47.477Z,12.50
2023-04-02T06:30:26.809Z,11.60
2023-04-02T06:32:58.228Z,11.27
2023-04-02T06:35:29.487Z,10.75
2023-04-02T06:38:07.550Z,11.90
2023-04-02T06:40:45.961Z,12.02
2023-04-02T06:43:43.219Z,12.40
2023-04-02T06:46:37.659Z,13.18
2023-04-02T06:49:25.094Z,12.43
2023-04-02T06:52:03.021Z,11.68
2023-04-02T06:54:35.400Z,12.40
2023-04-02T06:57:15.530Z,11.40
2023-04-02T06:59:47.663Z,11.10
2023-04-02T07:02:31.071Z,10.82
2023-04-02T07:05:08.767Z,11.05
2023-04-02T07:07:40.475Z,10.43
2023-04-02T07:10:19.245Z,10.82
2023-04-02T07:12:49.917Z,10.23
2023-04-02T07:15:23.662Z,10.85
2023-04-02T07:17:56.769Z,10.90
2023-04-02T07:20:33.310Z,10.43
2023-04-02T07:23:07.936Z,11.63
2023-04-02T07:25:37.537Z,13.32
2023-04-02T07:28:07.227Z,12.77
2023-04-02T07:30:36.461Z,12.27
2023-04-02T07:33:05.859Z,12.45
2023-04-02T07:35:37.480Z,10.85
2023-04-02T07:38:12.318Z,11.48
2023-04-02T07:40:42.080Z,10.77
2023-04-02T07:43:11.760Z,11.23
2023-04-02T07:45:41.476Z,11.00
2023-04-02T07:48:12.182Z,10.38
2023-04-02T07:50:45.596Z,10.50
2023-04-02T07:58:44.455Z,10.60
2023-04-02T08:01:26.547Z,10.63
2023-04-02T08:04:09.515Z,12.10
2023-04-02T08:06:40.849Z,10.88
2023-04-02T08:09:10.428Z,11.20
2023-04-02T08:11:42.597Z,11.73
2023-04-02T08:14:12.661Z,10.23
2023-04-02T08:16:49.552Z,11.40
2023-04-02T08:19:19.555Z,11.85
2023-04-02T08:21:54.097Z,10.93
2023-04-02T08:24:23.966Z,11.50
2023-04-02T08:26:53.331Z,11.98
2023-04-02T08:29:22.833Z,13.35
2023-04-02T08:31:52.337Z,13.85
2023-04-02T08:34:21.658Z,14.15
2023-04-02T08:36:59.047Z,13.25
2023-04-02T08:39:32.744Z,12.82
2023-04-02T08:42:18.480Z,12.48
2023-04-02T08:44:56.846Z,12.27
2023-04-02T08:47:30.560Z,11.88
2023-04-02T08:50:10.077Z,12.27
2023-04-02T08:52:41.794Z,12.13
2023-04-02T08:55:27.711Z,12.15
2023-04-02T08:58:07.322Z,11.30
2023-04-02T09:00:41.538Z,11.70
2023-04-02T09:03:17.059Z,10.73
2023-04-02T09:05:53.920Z,11.60
2023-04-02T09:08:27.198Z,10.95
2023-04-02T09:11:04.424Z,12.38
2023-04-02T09:13:37.270Z,10.82
2023-04-02T09:16:15.599Z,11.05
2023-04-02T09:18:46.877Z,11.10
2023-04-02T09:21:29.257Z,10.80
2023-04-02T09:24:01.218Z,10.13
2023-04-02T09:26:41.486Z,10.52
2023-04-02T09:29:41.140Z,10.07
2023-04-02T09:32:25.018Z,10.98
2023-04-02T09:35:24.545Z,9.88
2023-04-02T09:38:18.168Z,10.40
2023-04-02T09:43:24.958Z,9.43
2023-04-02T09:46:03.927Z,8.40
2023-04-02T09:48:36.508Z,9.02
2023-04-02T09:51:14.519Z,9.65
2023-04-02T09:53:51.046Z,9.68
2023-04-02T09:56:25.552Z,8.73
2023-04-02T09:59:05.951Z,9.43
2023-04-02T10:01:37.488Z,8.73
2023-04-02T10:04:08.372Z,8.90
2023-04-02T10:06:53.156Z,8.70
2023-04-02T10:09:29.996Z,9.00
2023-04-02T10:12:03.431Z,9.05
2023-04-02T10:14:37.523Z,8.88
2023-04-02T10:17:21.345Z,8.43
2023-04-02T10:19:57.086Z,8.52
2023-04-02T10:22:26.471Z,8.73
2023-04-02T10:24:55.696Z,8.20
2023-04-02T10:27:37.293Z,8.55
2023-04-02T10:30:21.012Z,7.90
2023-04-02T10:32:57.263Z,8.88
2023-04-02T10:35:40.676Z,8.63
2023-04-02T10:38:21.342Z,8.93
2023-04-02T10:40:56.971Z,9.00
2023-04-02T10:44:16.747Z,8.55
2023-04-02T10:47:01.989Z,8.32
2023-04-02T10:49:38.254Z,8.20
2023-04-02T10:52:13.279Z,8.07
2023-04-02T10:54:53.733Z,7.95
2023-04-02T10:57:35.742Z,8.50
2023-04-02T11:00:20.351Z,8.63
2023-04-02T11:03:05.752Z,8.10
2023-04-02T11:05:44.105Z,8.55
2023-04-02T11:08:21.068Z,8.50
2023-04-02T11:10:55.713Z,8.13
2023-04-02T11:13:29.666Z,8.50
2023-04-02T11:15:59.182Z,8.02
2023-04-02T11:18:35.705Z,8.20
2023-04-02T11:21:12.883Z,8.75
2023-04-02T11:23:58.340Z,8.55
2023-04-02T11:26:54.284Z,8.10
2023-04-02T11:29:27.649Z,8.45
2023-04-02T11:32:29.286Z,8.68
2023-04-02T11:35:38.327Z,8.80
2023-04-02T11:42:00.909Z,8.38
2023-04-02T11:44:35.563Z,9.07
2023-04-02T11:47:19.182Z,8.48
2023-04-02T11:50:27.402Z,8.27
2023-04-02T11:53:03.204Z,8.52
2023-04-02T11:55:34.910Z,8.90
2023-04-02T11:58:25.038Z,8.60
2023-04-02T12:01:32.558Z,8.55
2023-04-02T12:04:24.057Z,8.73
2023-04-02T12:07:10.464Z,8.15
2023-04-02T12:09:47.724Z,8.20
2023-04-02T12:12:29.651Z,8.48
2023-04-02T12:15:00.297Z,7.95
2023-04-02T12:17:40.851Z,8.88
2023-04-02T12:20:22.449Z,8.55
2023-04-02T12:22:59.511Z,11.30
2023-04-02T12:25:33.254Z,13.63
2023-04-02T12:28:07.515Z,12.88
2023-04-02T12:30:42.468Z,11.82
2023-04-02T12:33:30.395Z,10.48
2023-04-02T12:36:01.713Z,9.00
2023-04-02T12:38:32.789Z,8.65
2023-04-02T12:41:07.701Z,8.10
2023-04-02T12:43:42.018Z,7.70
2023-04-02T12:52:28.504Z,9.05
2023-04-02T12:55:00.052Z,7.45
2023-04-02T12:57:41.559Z,8.05
2023-04-02T13:00:37.846Z,7.53
2023-04-02T13:03:20.971Z,7.75
2023-04-02T13:05:55.893Z,8.02
2023-04-02T13:08:32.903Z,7.75
2023-04-02T13:11:03.861Z,7.10
2023-04-02T13:13:36.862Z,8.18
2023-04-02T13:16:29.772Z,7.15
2023-04-02T13:19:23.127Z,7.40
2023-04-02T13:21:52.754Z,7.82
2023-04-02T13:24:26.020Z,9.65
2023-04-02T13:26:58.145Z,8.05
2023-04-02T13:29:31.874Z,8.25
2023-04-02T13:32:03.289Z,8.13
2023-04-02T13:34:37.994Z,7.32
2023-04-02T13:37:07.176Z,8.50
2023-04-02T13:39:43.406Z,7.80
2023-04-02T13:42:13.908Z,7.35
2023-04-02T13:44:46.472Z,7.22
2023-04-02T13:47:16.771Z,6.55
2023-04-02T13:49:45.949Z,6.68
2023-04-02T13:52:17.926Z,7.25
2023-04-02T13:54:50.985Z,6.57
2023-04-02T14:00:07.364Z,5.93
2023-04-02T14:02:41.884Z,6.93
2023-04-02T14:05:29.295Z,6.63
2023-04-02T14:08:08.699Z,6.47
2023-04-02T14:11:01.413Z,6.57
2023-04-02T14:13:47.683Z,6.47
2023-04-02T14:16:35.195Z,6.65
2023-04-02T14:19:20.701Z,6.80
2023-04-02T14:22:05.696Z,6.53
2023-04-02T14:24:47.015Z,6.50
2023-04-02T14:27:33.478Z,6.18
2023-04-02T14:30:17.366Z,6.80
2023-04-02T14:33:04.882Z,6.28
2023-04-02T14:35:37.903Z,5.93
2023-04-02T14:38:21.623Z,6.32
2023-04-02T14:41:03.794Z,6.07
2023-04-02T14:43:43.033Z,6.20
2023-04-02T14:46:12.708Z,6.50
2023-04-02T14:48:52.502Z,6.10
2023-04-02T14:51:27.950Z,6.63
2023-04-02T14:54:03.331Z,6.55
2023-04-02T14:56:41.420Z,6.47
2023-04-02T14:59:31.035Z,6.75
2023-04-02T15:02:06.049Z,7.13
2023-04-02T15:04:40.018Z,6.65
2023-04-02T15:07:21.262Z,7.15
2023-04-02T15:09:57.184Z,7.32
2023-04-02T15:12:32.753Z,6.65
2023-04-02T15:15:10.763Z,7.50
2023-04-02T15:17:40.111Z,6.00
2023-04-02T15:20:16.481Z,5.65
2023-04-02T15:22:57.132Z,5.75
2023-04-02T15:25:35.624Z,5.30
2023-04-02T15:28:20.006Z,5.43
2023-04-02T15:30:58.586Z,6.13
2023-04-02T15:33:44.440Z,5.55
2023-04-02T15:36:48.487Z,6.55
2023-04-02T15:39:40.954Z,6.80
2023-04-02T15:42:18.365Z,6.82
2023-04-02T15:45:19.571Z,6.50
2023-04-02T15:48:18.228Z,7.93
2023-04-02T15:51:05.183Z,6.63
2023-04-02T15:53:47.881Z,5.97
2023-04-02T15:56:42.017Z,6.30
2023-04-02T15:59:36.765Z,6.35
2023-04-02T16:02:34.014Z,7.32
2023-04-02T16:05:12.133Z,7.43
2023-04-02T16:08:12.277Z,7.30
2023-04-02T16:10:44.730Z,6.38
2023-04-02T16:13:22.330Z,5.85
2023-04-02T16:15:56.078Z,6.38
2023-04-02T16:18:34.974Z,6.28
2023-04-02T16:21:06.580Z,5.70
2023-04-02T16:23:38.368Z,5.45
2023-04-02T16:26:23.054Z,5.78
2023-04-02T16:29:18.104Z,4.75
2023-04-02T16:31:55.647Z,4.75
2023-04-02T16:34:37.963Z,5.07
2023-04-02T16:37:17.349Z,4.85
2023-04-02T16:42:42.948Z,5.15
2023-04-02T16:45:30.970Z,6.00
2023-04-02T16:48:16.495Z,5.57
2023-04-02T16:51:10.729Z,4.93
2023-04-02T16:54:01.465Z,5.15
2023-04-02T16:56:46.503Z,5.18
2023-04-02T16:59:30.230Z,5.93
2023-04-02T17:02:10.261Z,6.32
2023-04-02T17:04:58.788Z,5.40
2023-04-02T17:07:38.232Z,5.38
2023-04-02T17:10:32.768Z,5.50
2023-04-02T17:13:17.502Z,5.28
2023-04-02T17:15:55.828Z,6.05
2023-04-02T17:18:26.706Z,5.53
2023-04-02T17:20:56.815Z,5.85
2023-04-02T17:23:26.829Z,6.10
2023-04-02T17:26:03.044Z,5.30
2023-04-02T17:28:47.661Z,5.60
2023-04-02T17:31:26.000Z,5.13
2023-04-02T17:33:55.472Z,4.72
2023-04-02T17:36:42.818Z,5.53
2023-04-02T17:39:35.478Z,5.00
2023-04-02T17:42:15.916Z,5.82
2023-04-02T17:44:56.917Z,5.18
2023-04-02T17:47:40.448Z,5.72
2023-04-02T17:50:39.458Z,5.47
2023-04-02T17:53:21.445Z,5.88
2023-04-02T17:58:57.317Z,5.75
2023-04-02T18:01:33.939Z,5.45
2023-04-02T18:04:15.256Z,5.15
2023-04-02T18:06:56.261Z,5.03
2023-04-02T18:09:41.667Z,5.00
2023-04-02T18:12:26.787Z,5.30
2023-04-02T18:15:13.771Z,4.93
2023-04-02T18:17:50.442Z,4.55
2023-04-02T18:20:29.073Z,5.30
2023-04-02T18:23:06.474Z,4.95
2023-04-02T18:25:56.268Z,5.18
2023-04-02T18:28:39.871Z,5.35
2023-04-02T18:31:19.815Z,5.07
2023-04-02T18:34:32.492Z,5.18
2023-04-02T18:37:10.378Z,5.18
2023-04-02T18:39:54.519Z,4.72
2023-04-02T18:42:35.837Z,5.15
2023-04-02T18:45:14.063Z,4.68
2023-04-02T18:47:55.009Z,4.95
2023-04-02T18:50:31.448Z,5.17
2023-04-02T18:53:00.983Z,5.60
2023-04-02T18:55:32.343Z,5.00
2023-04-02T18:58:07.302Z,5.13
2023-04-02T19:00:41.002Z,5.03
2023-04-02T19:03:25.382Z,5.60
2023-04-02T19:06:00.684Z,5.60
2023-04-02T19:08:34.632Z,5.35
2023-04-02T19:11:09.286Z,5.45
2023-04-02T19:13:38.802Z,5.30
2023-04-02T19:16:24.375Z,5.85
2023-04-02T19:19:10.761Z,6.53
2023-04-02T19:21:57.112Z,5.80
2023-04-02T19:24:43.719Z,5.90
2023-04-02T19:27:22.342Z,6.00
2023-04-02T19:30:12.894Z,5.65
2023-04-02T19:32:51.946Z,5.43
2023-04-02T19:35:33.974Z,5.80
2023-04-02T19:38:16.360Z,5.13
2023-04-02T19:40:54.853Z,5.60
2023-04-02T19:43:25.831Z,5.22
2023-04-02T19:46:03.614Z,5.63
2023-04-02T19:48:38.973Z,5.10
2023-04-02T19:51:15.343Z,5.43
2023-04-02T19:53:44.725Z,5.50
2023-04-02T19:56:14.053Z,4.63
2023-04-02T19:58:56.658Z,5.38
2023-04-02T20:01:26.107Z,5.30
2023-04-02T20:04:00.757Z,5.35
2023-04-02T20:06:32.873Z,5.80
2023-04-02T20:09:03.088Z,5.07
2023-04-02T20:11:32.637Z,5.47
2023-04-02T20:14:01.855Z,5.05
2023-04-02T20:19:07.354Z,5.25
2023-04-02T20:21:39.833Z,5.68
2023-04-02T20:24:14.219Z,5.55
2023-04-02T20:26:43.604Z,5.22
2023-04-02T20:29:12.938Z,5.28
2023-04-02T20:31:42.154Z,5.20
2023-04-02T20:34:12.354Z,5.20
2023-04-02T20:36:49.202Z,5.30
2023-04-02T20:39:19.200Z,5.40
2023-04-02T20:41:48.840Z,6.30
2023-04-02T20:44:18.277Z,5.50
2023-04-02T20:46:47.548Z,5.72
2023-04-02T20:49:16.933Z,5.50
2023-04-02T20:51:48.644Z,5.50
2023-04-02T20:54:18.866Z,5.50
2023-04-02T20:56:48.039Z,5.47
2023-04-02T20:59:17.532Z,5.50
2023-04-02T21:01:47.937Z,5.95
2023-04-02T21:04:17.745Z,5.78
2023-04-02T21:06:48.931Z,5.88
2023-04-02T21:09:21.032Z,6.13
2023-04-02T21:11:50.699Z,5.72
2023-04-02T21:14:19.940Z,5.90
2023-04-02T21:16:49.465Z,5.95
2023-04-02T21:19:18.714Z,5.97
2023-04-02T21:21:50.138Z,5.82
2023-04-02T21:24:19.547Z,5.90
2023-04-02T21:26:49.183Z,5.45
2023-04-02T21:29:23.680Z,6.07
2023-04-02T21:31:53.040Z,5.95
2023-04-02T21:34:22.484Z,5.90
2023-04-02T21:36:55.238Z,6.22
2023-04-02T21:39:42.462Z,5.35
2023-04-02T21:42:13.532Z,6.43
2023-04-02T21:44:49.010Z,5.88
2023-04-02T21:47:18.408Z,6.07
2023-04-02T21:49:47.797Z,5.82
2023-04-02T21:52:19.326Z,5.95
2023-04-02T21:54:48.705Z,5.60
2023-04-02T21:57:19.041Z,6.22
2023-04-02T21:59:56.585Z,6.03
2023-04-02T22:02:25.958Z,6.20
2023-04-02T22:04:55.300Z,6.20
2023-04-02T22:07:31.712Z,6.28
2023-04-02T22:10:01.130Z,5.57
2023-04-02T22:12:30.828Z,6.10
2023-04-02T22:15:00.213Z,6.53
2023-04-02T22:17:29.468Z,6.07
2023-04-02T22:19:58.775Z,6.55
2023-04-02T22:22:28.519Z,6.72
2023-04-02T22:25:07.030Z,6.22
2023-04-02T22:27:36.358Z,6.90
2023-04-02T22:30:06.454Z,7.45
2023-04-02T22:32:36.237Z,7.47
2023-04-02T22:35:06.211Z,7.30
2023-04-02T22:37:35.880Z,7.72
2023-04-02T22:40:07.995Z,8.00
2023-04-02T22:42:38.039Z,7.97
2023-04-02T22:45:08.129Z,7.00
2023-04-02T22:47:42.564Z,6.25
2023-04-02T22:50:12.676Z,6.63
2023-04-02T22:53:00.164Z,6.65
2023-04-02T22:55:36.582Z,6.97
2023-04-02T22:58:05.786Z,7.38
2023-04-02T23:00:35.229Z,7.38
2023-04-02T23:03:05.277Z,7.50
2023-04-02T23:05:34.543Z,7.25
2023-04-02T23:08:03.773Z,7.78
2023-04-02T23:10:40.076Z,7.40
2023-04-02T23:13:09.597Z,7.32
2023-04-02T23:15:43.914Z,7.75
2023-04-02T23:18:13.452Z,8.32
2023-04-02T23:20:43.214Z,8.13
2023-04-02T23:23:27.806Z,7.78
2023-04-02T23:26:08.561Z,8.45
2023-04-02T23:28:39.323Z,7.43
2023-04-02T23:31:10.869Z,8.02
2023-04-02T23:33:40.180Z,7.45
2023-04-02T23:36:20.950Z,9.10
2023-04-02T23:38:50.441Z,8.33
2023-04-02T23:41:21.784Z,8.65
2023-04-02T23:43:54.065Z,8.80
2023-04-02T23:46:28.987Z,9.15
2023-04-02T23:48:59.438Z,9.10
2023-04-02T23:51:29.616Z,8.95
2023-04-02T23:53:59.002Z,9.75
2023-04-02T23:56:35.902Z,10.10
